createdAt,value
2022-11-27T00:00:02.384Z,-0.20
2022-11-27T00:02:29.462Z,-0.30
2022-11-27T00:04:56.704Z,-0.40
2022-11-27T00:07:23.688Z,-0.40
2022-11-27T00:09:50.648Z,-0.40
2022-11-27T00:12:18.207Z,-0.40
2022-11-27T00:14:45.148Z,-0.50
2022-11-27T00:17:12.099Z,-0.50
2022-11-27T00:19:39.384Z,-0.50
2022-11-27T00:22:06.635Z,-0.40
2022-11-27T00:24:33.860Z,-0.50
2022-11-27T00:27:00.863Z,-0.50
2022-11-27T00:29:29.323Z,-0.60
2022-11-27T00:31:58.243Z,-0.70
2022-11-27T00:34:25.197Z,-0.70
2022-11-27T00:36:52.426Z,-0.70
2022-11-27T00:39:19.492Z,-0.70
2022-11-27T00:41:46.567Z,-0.80
2022-11-27T00:44:14.312Z,-0.80
2022-11-27T00:46:41.817Z,-0.70
2022-11-27T00:49:11.606Z,-0.70
2022-11-27T00:51:38.600Z,-0.70
2022-11-27T00:54:06.114Z,-0.70
2022-11-27T00:56:38.348Z,-0.70
2022-11-27T00:59:07.282Z,-0.70
2022-11-27T01:01:37.858Z,-0.80
2022-11-27T01:04:06.728Z,-0.90
2022-11-27T01:06:34.085Z,-0.90
2022-11-27T01:09:01.914Z,-0.90
2022-11-27T01:11:31.558Z,-0.90
2022-11-27T01:14:04.513Z,-1.00
2022-11-27T01:16:33.154Z,-1.00
2022-11-27T01:19:01.725Z,-1.10
2022-11-27T01:21:31.129Z,-1.10
2022-11-27T01:23:59.117Z,-1.00
2022-11-27T01:26:26.960Z,-1.00
2022-11-27T01:28:58.193Z,-1.00
2022-11-27T01:31:31.025Z,-1.00
2022-11-27T01:34:02.229Z,-1.00
2022-11-27T01:36:30.255Z,-0.90
2022-11-27T01:38:57.459Z,-0.90
2022-11-27T01:41:35.238Z,-0.90
2022-11-27T01:44:24.721Z,-0.90
2022-11-27T01:47:03.686Z,-0.90
2022-11-27T01:49:36.301Z,-1.00
2022-11-27T01:52:09.109Z,-1.10
2022-11-27T01:54:46.063Z,-1.10
2022-11-27T01:57:22.074Z,-1.20
2022-11-27T01:59:51.240Z,-1.10
2022-11-27T02:02:18.353Z,-1.20
2022-11-27T02:04:45.476Z,-1.20
2022-11-27T02:07:12.540Z,-1.20
2022-11-27T02:09:40.333Z,-1.20
2022-11-27T02:12:26.845Z,-1.20
2022-11-27T02:15:14.189Z,-1.20
2022-11-27T02:18:02.880Z,-1.20
2022-11-27T02:20:57.530Z,-1.20
2022-11-27T02:23:48.164Z,-1.20
2022-11-27T02:26:49.415Z,-1.20
2022-11-27T02:29:21.840Z,-1.20
2022-11-27T02:32:15.869Z,-1.20
2022-11-27T02:34:45.786Z,-1.30
2022-11-27T02:37:27.539Z,-1.30
2022-11-27T02:39:57.544Z,-1.30
2022-11-27T02:42:26.599Z,-1.20
2022-11-27T02:45:00.183Z,-1.20
2022-11-27T02:47:29.169Z,-1.30
2022-11-27T02:49:57.722Z,-1.30
2022-11-27T02:52:28.969Z,-1.30
2022-11-27T02:55:00.685Z,-1.30
2022-11-27T02:57:29.389Z,-1.30
2022-11-27T02:59:58.126Z,-1.30
2022-11-27T03:02:42.057Z,-1.30
2022-11-27T03:05:12.760Z,-1.30
2022-11-27T03:07:47.619Z,-1.30
2022-11-27T03:10:26.989Z,-1.30
2022-11-27T03:12:53.956Z,-1.20
2022-11-27T03:15:23.155Z,-1.20
2022-11-27T03:17:59.693Z,-1.10
2022-11-27T03:20:33.240Z,-1.10
2022-11-27T03:23:00.147Z,-1.00
2022-11-27T03:25:27.120Z,-0.90
2022-11-27T03:28:01.644Z,-0.90
2022-11-27T03:30:28.720Z,-0.80
2022-11-27T03:32:56.061Z,-0.80
2022-11-27T03:35:25.757Z,-0.70
2022-11-27T03:37:53.706Z,-0.70
2022-11-27T03:40:22.452Z,-0.70
2022-11-27T03:43:14.365Z,-0.70
2022-11-27T03:45:51.670Z,-0.60
2022-11-27T03:48:43.687Z,-0.50
2022-11-27T03:51:51.554Z,-0.50
2022-11-27T03:54:36.014Z,-0.40
2022-11-27T03:57:17.602Z,-0.30
2022-11-27T03:59:47.409Z,-0.30
2022-11-27T04:02:15.953Z,-0.20
2022-11-27T04:04:43.040Z,-0.10
2022-11-27T04:07:17.599Z,-0.10
2022-11-27T04:09:44.714Z,0.00
2022-11-27T04:12:11.739Z,0.00
2022-11-27T04:14:39.169Z,0.00
2022-11-27T04:17:06.274Z,0.10
2022-11-27T04:19:33.287Z,0.10
2022-11-27T04:22:00.441Z,0.10
2022-11-27T04:24:27.378Z,0.20
2022-11-27T04:26:54.377Z,0.30
2022-11-27T04:29:21.314Z,0.30
2022-11-27T04:31:48.309Z,0.30
2022-11-27T04:34:15.247Z,0.40
2022-11-27T04:36:42.624Z,0.40
2022-11-27T04:39:09.669Z,0.50
2022-11-27T04:41:36.672Z,0.50
2022-11-27T04:44:03.680Z,0.50
2022-11-27T04:46:30.703Z,0.60
2022-11-27T04:48:57.785Z,0.60
2022-11-27T04:51:24.743Z,0.60
2022-11-27T04:53:51.671Z,0.60
2022-11-27T04:56:18.649Z,0.60
2022-11-27T04:58:45.550Z,0.60
2022-11-27T05:01:12.632Z,0.70
2022-11-27T05:03:39.671Z,0.70
2022-11-27T05:06:06.773Z,0.80
2022-11-27T05:08:34.144Z,0.70
2022-11-27T05:11:05.493Z,0.80
2022-11-27T05:13:33.099Z,0.80
2022-11-27T05:16:00.129Z,0.80
2022-11-27T05:18:27.513Z,0.90
2022-11-27T05:21:03.310Z,0.90
2022-11-27T05:23:30.560Z,0.90
2022-11-27T05:25:57.657Z,0.90
2022-11-27T05:28:27.023Z,0.90
2022-11-27T05:30:54.528Z,1.00
2022-11-27T05:33:21.515Z,1.00
2022-11-27T05:35:48.506Z,1.00
2022-11-27T05:38:15.407Z,1.00
2022-11-27T05:40:42.394Z,1.00
2022-11-27T05:43:09.420Z,1.00
2022-11-27T05:45:38.045Z,1.00
2022-11-27T05:48:05.140Z,1.00
2022-11-27T05:50:32.136Z,1.00
2022-11-27T05:52:59.052Z,1.00
2022-11-27T05:55:26.087Z,1.00
2022-11-27T05:57:53.109Z,1.00
2022-11-27T06:00:20.330Z,1.00
2022-11-27T06:02:47.450Z,1.00
2022-11-27T06:05:14.709Z,0.90
2022-11-27T06:07:41.807Z,0.90
2022-11-27T06:10:09.088Z,0.90
2022-11-27T06:12:36.210Z,0.90
2022-11-27T06:15:03.512Z,0.80
2022-11-27T06:17:31.028Z,0.80
2022-11-27T06:19:57.951Z,0.90
2022-11-27T06:22:24.955Z,0.80
2022-11-27T06:24:51.848Z,0.80
2022-11-27T06:27:18.911Z,0.80
2022-11-27T06:29:45.787Z,0.80
2022-11-27T06:32:12.917Z,0.80
2022-11-27T06:34:40.017Z,0.80
2022-11-27T06:37:11.780Z,0.80
2022-11-27T06:39:40.010Z,0.80
2022-11-27T06:42:07.082Z,0.70
2022-11-27T06:44:33.978Z,0.70
2022-11-27T06:47:01.006Z,0.70
2022-11-27T06:49:27.931Z,0.60
2022-11-27T06:51:54.836Z,0.70
2022-11-27T06:54:21.802Z,0.60
2022-11-27T06:56:50.093Z,0.60
2022-11-27T06:59:17.406Z,0.60
2022-11-27T07:01:44.729Z,0.70
2022-11-27T07:04:13.981Z,0.70
2022-11-27T07:06:41.891Z,0.70
2022-11-27T07:09:10.206Z,0.60
2022-11-27T07:11:38.722Z,0.60
2022-11-27T07:14:06.285Z,0.60
2022-11-27T07:16:36.411Z,0.70
2022-11-27T07:19:06.060Z,0.70
2022-11-27T07:21:33.936Z,0.80
2022-11-27T07:24:01.328Z,0.80
2022-11-27T07:26:30.049Z,0.90
2022-11-27T07:28:57.475Z,0.90
2022-11-27T07:31:28.305Z,0.90
2022-11-27T07:33:56.278Z,0.90
2022-11-27T07:36:29.340Z,0.90
2022-11-27T07:38:58.140Z,0.90
2022-11-27T07:41:30.605Z,0.90
2022-11-27T07:44:00.694Z,0.90
2022-11-27T07:46:27.694Z,0.90
2022-11-27T07:48:54.672Z,0.90
2022-11-27T07:51:22.559Z,0.90
2022-11-27T07:53:52.067Z,0.90
2022-11-27T07:56:20.703Z,1.00
2022-11-27T07:58:48.502Z,1.00
2022-11-27T08:01:18.188Z,0.90
2022-11-27T08:03:45.404Z,0.90
2022-11-27T08:06:22.664Z,0.90
2022-11-27T08:08:50.750Z,0.90
2022-11-27T08:11:23.228Z,1.00
2022-11-27T08:13:51.297Z,1.00
2022-11-27T08:16:18.413Z,1.00
2022-11-27T08:18:45.498Z,1.00
2022-11-27T08:21:12.450Z,1.00
2022-11-27T08:23:39.666Z,1.00
2022-11-27T08:26:10.752Z,1.00
2022-11-27T08:28:38.563Z,1.00
2022-11-27T08:31:09.457Z,1.00
2022-11-27T08:33:37.035Z,0.90
2022-11-27T08:36:05.039Z,1.00
2022-11-27T08:38:32.478Z,1.10
2022-11-27T08:41:05.010Z,1.20
2022-11-27T08:43:32.498Z,1.40
2022-11-27T08:46:00.200Z,1.50
2022-11-27T08:48:28.252Z,1.50
2022-11-27T08:50:55.198Z,1.60
2022-11-27T08:53:24.206Z,1.60
2022-11-27T08:55:51.195Z,1.80
2022-11-27T08:58:18.167Z,2.00
2022-11-27T09:00:45.247Z,2.30
2022-11-27T09:03:12.713Z,2.50
2022-11-27T09:05:44.569Z,2.60
2022-11-27T09:08:16.522Z,2.70
2022-11-27T09:10:43.485Z,2.70
2022-11-27T09:13:10.468Z,2.70
2022-11-27T09:15:37.541Z,2.60
2022-11-27T09:18:04.913Z,2.50
2022-11-27T09:20:31.868Z,2.50
2022-11-27T09:23:01.319Z,2.70
2022-11-27T09:25:29.007Z,2.80
2022-11-27T09:27:56.027Z,2.90
2022-11-27T09:30:23.057Z,2.80
2022-11-27T09:32:50.146Z,2.70
2022-11-27T09:35:17.230Z,2.90
2022-11-27T09:37:44.222Z,2.90
2022-11-27T09:40:15.846Z,2.90
2022-11-27T09:43:09.812Z,3.00
2022-11-27T09:45:44.370Z,3.00
2022-11-27T09:48:53.568Z,3.00
2022-11-27T09:51:35.303Z,2.80
2022-11-27T09:54:20.618Z,2.70
2022-11-27T09:56:51.141Z,2.50
2022-11-27T09:59:27.851Z,2.50
2022-11-27T10:01:54.879Z,2.40
2022-11-27T10:04:22.180Z,2.30
2022-11-27T10:07:07.264Z,2.20
2022-11-27T10:09:46.157Z,2.30
2022-11-27T10:12:34.655Z,2.10
2022-11-27T10:15:18.181Z,2.10
2022-11-27T10:18:01.702Z,2.10
2022-11-27T10:20:58.443Z,2.20
2022-11-27T10:23:37.275Z,2.40
2022-11-27T10:26:26.452Z,2.50
2022-11-27T10:29:18.769Z,2.60
2022-11-27T10:31:53.391Z,2.60
2022-11-27T10:34:43.419Z,2.70
2022-11-27T10:37:33.749Z,2.80
2022-11-27T10:40:08.911Z,2.70
2022-11-27T10:42:57.985Z,2.70
2022-11-27T10:45:45.294Z,2.90
2022-11-27T10:48:13.712Z,2.90
2022-11-27T10:50:41.848Z,2.90
2022-11-27T10:53:28.837Z,2.90
2022-11-27T10:56:09.847Z,2.80
2022-11-27T10:58:42.258Z,2.70
2022-11-27T11:01:19.581Z,2.50
2022-11-27T11:03:46.993Z,2.50
2022-11-27T11:06:22.812Z,2.60
2022-11-27T11:09:04.699Z,2.70
2022-11-27T11:11:31.906Z,2.70
2022-11-27T11:13:59.137Z,2.90
2022-11-27T11:16:35.180Z,3.00
2022-11-27T11:19:03.668Z,3.00
2022-11-27T11:21:44.880Z,3.10
2022-11-27T11:24:26.853Z,3.00
2022-11-27T11:27:04.022Z,3.00
2022-11-27T11:29:42.002Z,3.00
2022-11-27T11:32:16.688Z,2.90
2022-11-27T11:34:46.911Z,2.80
2022-11-27T11:37:28.635Z,2.80
2022-11-27T11:39:59.821Z,2.90
2022-11-27T11:42:32.343Z,3.00
2022-11-27T11:45:12.063Z,3.30
2022-11-27T11:47:51.577Z,3.40
2022-11-27T11:50:30.333Z,3.60
2022-11-27T11:53:22.695Z,3.80
2022-11-27T11:56:08.588Z,3.80
2022-11-27T11:58:42.392Z,3.70
2022-11-27T12:01:39.955Z,3.70
2022-11-27T12:04:20.763Z,3.70
2022-11-27T12:07:06.579Z,3.70
2022-11-27T12:09:51.232Z,3.70
2022-11-27T12:12:39.578Z,3.60
2022-11-27T12:15:18.418Z,3.50
2022-11-27T12:18:01.567Z,3.40
2022-11-27T12:20:34.579Z,3.40
2022-11-27T12:23:17.453Z,3.40
2022-11-27T12:25:52.263Z,3.40
2022-11-27T12:28:27.903Z,3.50
2022-11-27T12:31:15.569Z,3.60
2022-11-27T12:33:42.488Z,3.70
2022-11-27T12:36:18.386Z,3.80
2022-11-27T12:39:01.097Z,3.90
2022-11-27T12:42:00.877Z,3.90
2022-11-27T12:44:55.861Z,3.90
2022-11-27T12:47:34.948Z,3.90
2022-11-27T12:50:28.383Z,3.80
2022-11-27T12:53:11.830Z,3.80
2022-11-27T12:55:43.661Z,3.80
2022-11-27T12:58:21.549Z,3.80
2022-11-27T13:00:50.583Z,3.70
2022-11-27T13:03:23.785Z,3.70
2022-11-27T13:05:59.163Z,3.70
2022-11-27T13:08:38.131Z,3.70
2022-11-27T13:11:10.292Z,3.70
2022-11-27T13:13:54.104Z,3.60
2022-11-27T13:16:47.505Z,3.60
2022-11-27T13:19:32.934Z,3.60
2022-11-27T13:22:03.432Z,3.60
2022-11-27T13:24:30.557Z,3.60
2022-11-27T13:27:04.808Z,3.60
2022-11-27T13:29:44.319Z,3.60
2022-11-27T13:32:30.946Z,3.50
2022-11-27T13:35:06.786Z,3.50
2022-11-27T13:37:35.548Z,3.50
2022-11-27T13:40:21.211Z,3.60
2022-11-27T13:42:55.822Z,3.60
2022-11-27T13:45:32.365Z,3.70
2022-11-27T13:48:01.238Z,3.70
2022-11-27T13:50:31.640Z,3.80
2022-11-27T13:53:05.088Z,3.90
2022-11-27T13:55:36.107Z,3.90
2022-11-27T13:58:05.287Z,3.80
2022-11-27T14:00:43.710Z,3.80
2022-11-27T14:03:43.533Z,3.70
2022-11-27T14:06:26.453Z,3.70
2022-11-27T14:08:59.538Z,3.80
2022-11-27T14:11:53.650Z,3.80
2022-11-27T14:14:24.097Z,3.70
2022-11-27T14:17:05.037Z,3.60
2022-11-27T14:19:45.201Z,3.50
2022-11-27T14:22:48.476Z,3.40
2022-11-27T14:25:32.432Z,3.30
2022-11-27T14:28:22.411Z,3.20
2022-11-27T14:30:55.436Z,3.20
2022-11-27T14:33:27.354Z,3.10
2022-11-27T14:35:56.899Z,3.10
2022-11-27T14:38:25.734Z,3.00
2022-11-27T14:40:55.075Z,3.00
2022-11-27T14:43:26.355Z,2.90
2022-11-27T14:45:58.838Z,2.80
2022-11-27T14:48:28.924Z,2.80
2022-11-27T14:50:56.970Z,2.70
2022-11-27T14:53:27.424Z,2.70
2022-11-27T14:55:57.891Z,2.70
2022-11-27T14:58:30.014Z,2.70
2022-11-27T15:01:01.930Z,2.60
2022-11-27T15:03:29.363Z,2.60
2022-11-27T15:06:02.837Z,2.50
2022-11-27T15:08:36.204Z,2.50
2022-11-27T15:11:05.085Z,2.50
2022-11-27T15:13:34.591Z,2.50
2022-11-27T15:16:04.778Z,2.50
2022-11-27T15:18:35.266Z,2.50
2022-11-27T15:21:03.611Z,2.50
2022-11-27T15:23:34.080Z,2.50
2022-11-27T15:26:14.979Z,2.50
2022-11-27T15:28:47.058Z,2.40
2022-11-27T15:31:35.003Z,2.50
2022-11-27T15:34:16.057Z,2.50
2022-11-27T15:36:59.774Z,2.40
2022-11-27T15:39:45.228Z,2.40
2022-11-27T15:42:12.195Z,2.40
2022-11-27T15:44:39.318Z,2.40
2022-11-27T15:47:18.723Z,2.30
2022-11-27T15:49:46.272Z,2.30
2022-11-27T15:52:13.166Z,2.20
2022-11-27T15:54:40.501Z,2.20
2022-11-27T15:57:07.574Z,2.10
2022-11-27T15:59:34.691Z,2.10
2022-11-27T16:02:01.736Z,2.00
2022-11-27T16:04:28.732Z,2.00
2022-11-27T16:06:55.765Z,2.00
2022-11-27T16:09:22.967Z,1.90
2022-11-27T16:11:50.116Z,1.90
2022-11-27T16:14:17.066Z,1.90
2022-11-27T16:16:44.098Z,1.90
2022-11-27T16:19:12.436Z,1.90
2022-11-27T16:21:39.421Z,1.90
2022-11-27T16:24:07.915Z,1.80
2022-11-27T16:26:36.868Z,1.80
2022-11-27T16:29:04.393Z,1.80
2022-11-27T16:31:31.461Z,1.90
2022-11-27T16:33:59.726Z,1.90
2022-11-27T16:36:26.705Z,1.80
2022-11-27T16:38:57.839Z,1.80
2022-11-27T16:41:25.641Z,1.80
2022-11-27T16:43:54.693Z,1.80
2022-11-27T16:46:26.183Z,1.90
2022-11-27T16:48:54.754Z,1.80
2022-11-27T16:51:34.278Z,1.90
2022-11-27T16:54:03.958Z,1.90
2022-11-27T16:56:32.644Z,1.90
2022-11-27T16:59:03.126Z,2.00
2022-11-27T17:01:36.047Z,1.90
2022-11-27T17:04:17.333Z,1.90
2022-11-27T17:06:44.681Z,2.00
2022-11-27T17:09:11.869Z,1.90
2022-11-27T17:11:43.221Z,2.00
2022-11-27T17:14:10.529Z,2.00
2022-11-27T17:16:42.869Z,2.00
2022-11-27T17:19:13.206Z,1.90
2022-11-27T17:21:40.842Z,1.90
2022-11-27T17:24:15.065Z,1.90
2022-11-27T17:26:43.661Z,1.90
2022-11-27T17:29:15.664Z,1.90
2022-11-27T17:31:43.106Z,1.90
2022-11-27T17:34:12.593Z,1.90
2022-11-27T17:36:42.135Z,1.90
2022-11-27T17:39:12.261Z,1.90
2022-11-27T17:41:40.715Z,1.90
2022-11-27T17:44:08.242Z,1.80
2022-11-27T17:46:36.389Z,1.80
2022-11-27T17:49:05.792Z,1.80
2022-11-27T17:51:34.581Z,1.70
2022-11-27T17:54:02.482Z,1.70
2022-11-27T17:56:29.795Z,1.60
2022-11-27T17:58:56.779Z,1.70
2022-11-27T18:01:26.531Z,1.70
2022-11-27T18:04:00.832Z,1.70
2022-11-27T18:06:28.407Z,1.70
2022-11-27T18:08:57.450Z,1.70
2022-11-27T18:11:27.855Z,1.70
2022-11-27T18:13:54.987Z,1.70
2022-11-27T18:16:29.395Z,1.70
2022-11-27T18:18:57.698Z,1.70
2022-11-27T18:21:27.296Z,1.70
2022-11-27T18:24:21.986Z,1.60
2022-11-27T18:27:07.041Z,1.60
2022-11-27T18:29:29.291Z,1.60
2022-11-27T18:31:56.300Z,1.60
2022-11-27T18:34:23.269Z,1.60
2022-11-27T18:36:51.505Z,1.70
2022-11-27T18:39:18.661Z,1.70
2022-11-27T18:41:45.652Z,1.70
2022-11-27T18:44:12.827Z,1.70
2022-11-27T18:46:40.070Z,1.70
2022-11-27T18:49:07.059Z,1.70
2022-11-27T18:51:34.166Z,1.70
2022-11-27T18:54:01.111Z,1.80
2022-11-27T18:56:32.058Z,1.80
2022-11-27T18:59:07.029Z,1.80
2022-11-27T19:01:42.091Z,1.80
2022-11-27T19:04:13.201Z,1.80
2022-11-27T19:06:42.335Z,1.80
2022-11-27T19:09:11.203Z,1.80
2022-11-27T19:11:38.364Z,1.80
2022-11-27T19:14:06.276Z,1.80
2022-11-27T19:16:45.661Z,1.80
2022-11-27T19:19:53.012Z,1.80
2022-11-27T19:22:02.687Z,1.80
2022-11-27T19:24:29.928Z,1.80
2022-11-27T19:26:58.073Z,1.80
2022-11-27T19:29:25.158Z,1.80
2022-11-27T19:31:52.294Z,1.80
2022-11-27T19:34:19.429Z,1.80
2022-11-27T19:36:46.359Z,1.80
2022-11-27T19:39:14.803Z,1.80
2022-11-27T19:41:43.413Z,1.80
2022-11-27T19:44:12.549Z,1.80
2022-11-27T19:46:39.799Z,1.80
2022-11-27T19:49:12.330Z,1.80
2022-11-27T19:51:39.729Z,1.80
2022-11-27T19:54:10.304Z,1.80
2022-11-27T19:56:40.220Z,1.90
2022-11-27T19:59:08.541Z,1.90
2022-11-27T20:01:36.012Z,1.90
2022-11-27T20:04:04.019Z,1.90
2022-11-27T20:06:32.539Z,1.90
2022-11-27T20:09:03.498Z,1.80
2022-11-27T20:11:34.828Z,1.90
2022-11-27T20:14:04.318Z,1.90
2022-11-27T20:16:31.796Z,1.90
2022-11-27T20:18:58.868Z,1.90
2022-11-27T20:21:26.733Z,1.90
2022-11-27T20:23:54.723Z,1.90
2022-11-27T20:26:24.311Z,1.90
2022-11-27T20:28:52.837Z,1.90
2022-11-27T20:31:27.310Z,1.90
2022-11-27T20:33:56.858Z,1.90
2022-11-27T20:36:24.804Z,1.90
2022-11-27T20:38:53.943Z,1.90
2022-11-27T20:41:22.180Z,1.90
2022-11-27T20:43:50.794Z,2.00
2022-11-27T20:46:18.023Z,2.00
2022-11-27T20:48:50.451Z,2.00
2022-11-27T20:51:21.287Z,2.00
2022-11-27T20:53:49.317Z,2.00
2022-11-27T20:56:18.269Z,2.00
2022-11-27T20:58:46.221Z,2.00
2022-11-27T21:01:21.552Z,2.00
2022-11-27T21:03:50.827Z,2.00
2022-11-27T21:06:20.281Z,2.10
2022-11-27T21:08:47.348Z,2.00
2022-11-27T21:11:16.766Z,2.00
2022-11-27T21:13:44.114Z,2.00
2022-11-27T21:16:13.400Z,2.00
2022-11-27T21:18:40.926Z,2.00
2022-11-27T21:21:13.257Z,2.00
2022-11-27T21:23:41.819Z,2.10
2022-11-27T21:26:09.844Z,2.10
2022-11-27T21:28:37.323Z,2.10
2022-11-27T21:31:16.863Z,2.10
2022-11-27T21:33:50.637Z,2.10
2022-11-27T21:36:19.904Z,2.00
2022-11-27T21:38:47.293Z,2.10
2022-11-27T21:41:17.880Z,2.10
2022-11-27T21:43:45.986Z,2.10
2022-11-27T21:46:17.247Z,2.10
2022-11-27T21:48:45.818Z,2.10
2022-11-27T21:51:15.300Z,2.20
2022-11-27T21:53:43.772Z,2.20
2022-11-27T21:56:13.595Z,2.20
2022-11-27T21:58:41.042Z,2.20
2022-11-27T22:01:16.529Z,2.30
2022-11-27T22:03:43.942Z,2.30
2022-11-27T22:06:13.048Z,2.30
2022-11-27T22:08:40.638Z,2.30
2022-11-27T22:11:12.838Z,2.30
2022-11-27T22:13:41.233Z,2.20
2022-11-27T22:16:14.525Z,2.20
2022-11-27T22:18:41.818Z,2.20
2022-11-27T22:21:10.368Z,2.30
2022-11-27T22:23:37.994Z,2.30
2022-11-27T22:26:08.364Z,2.30
2022-11-27T22:28:36.608Z,2.30
2022-11-27T22:31:11.287Z,2.20
2022-11-27T22:33:38.743Z,2.20
2022-11-27T22:36:35.006Z,2.20
2022-11-27T22:39:04.681Z,2.20
2022-11-27T22:41:36.047Z,2.20
2022-11-27T22:44:14.928Z,2.20
2022-11-27T22:46:42.621Z,2.20
2022-11-27T22:49:12.092Z,2.20
2022-11-27T22:51:39.640Z,2.20
2022-11-27T22:54:08.027Z,2.20
2022-11-27T22:56:36.049Z,2.20
2022-11-27T22:59:31.848Z,2.20
2022-11-27T23:01:51.848Z,2.20
2022-11-27T23:04:18.784Z,2.30
2022-11-27T23:06:48.344Z,2.30
2022-11-27T23:09:18.122Z,2.30
2022-11-27T23:11:45.777Z,2.30
2022-11-27T23:14:12.738Z,2.30
2022-11-27T23:16:40.159Z,2.30
2022-11-27T23:19:07.249Z,2.30
2022-11-27T23:21:37.593Z,2.30
2022-11-27T23:24:06.147Z,2.30
2022-11-27T23:26:33.513Z,2.30
2022-11-27T23:29:00.528Z,2.30
2022-11-27T23:31:31.205Z,2.30
2022-11-27T23:34:01.843Z,2.30
2022-11-27T23:36:30.837Z,2.30
2022-11-27T23:39:00.805Z,2.30
2022-11-27T23:41:27.861Z,2.30
2022-11-27T23:43:55.617Z,2.30
2022-11-27T23:46:26.419Z,2.30
2022-11-27T23:48:58.211Z,2.30
2022-11-27T23:51:27.890Z,2.30
2022-11-27T23:53:55.175Z,2.40
2022-11-27T23:56:25.161Z,2.30
2022-11-27T23:58:53.778Z,2.30
